createdAt,value
2019-03-23T00:01:56.137Z,98843.58
2019-03-23T00:04:25.492Z,98842.34
2019-03-23T00:06:53.989Z,98841.09
2019-03-23T00:09:22.443Z,98837.59
2019-03-23T00:11:51.019Z,98845.05
2019-03-23T00:14:19.369Z,98837.30
2019-03-23T00:16:47.845Z,98806.13
2019-03-23T00:19:16.466Z,98829.06
2019-03-23T00:21:44.804Z,98823.38
2019-03-23T00:24:13.365Z,98819.47
2019-03-23T00:26:41.700Z,98820.70
2019-03-23T00:29:10.270Z,98816.50
2019-03-23T00:31:38.545Z,98807.81
2019-03-23T00:34:07.078Z,98806.59
2019-03-23T00:36:41.528Z,98802.24
2019-03-23T00:39:07.296Z,98799.62
2019-03-23T00:41:35.953Z,98797.06
2019-03-23T00:44:04.332Z,98788.70
2019-03-23T00:46:33.064Z,98787.02
2019-03-23T00:49:01.754Z,98784.01
2019-03-23T00:51:33.312Z,98789.70
2019-03-23T00:54:01.755Z,98788.36
2019-03-23T00:56:30.282Z,98786.63
2019-03-23T00:58:59.649Z,98790.13
2019-03-23T01:01:28.028Z,98783.20
2019-03-23T01:03:57.996Z,98784.47
2019-03-23T01:06:26.574Z,98783.53
2019-03-23T01:08:55.169Z,98789.20
2019-03-23T01:11:23.649Z,98788.82
2019-03-23T01:13:52.237Z,98785.88
2019-03-23T01:16:20.943Z,98793.41
2019-03-23T01:18:49.431Z,98790.34
2019-03-23T01:21:18.220Z,98794.45
2019-03-23T01:23:46.628Z,98787.94
2019-03-23T01:26:15.344Z,98785.28
2019-03-23T01:28:43.988Z,98782.30
2019-03-23T01:31:12.430Z,98783.27
2019-03-23T01:33:41.313Z,98789.44
2019-03-23T01:36:09.830Z,98784.67
2019-03-23T01:38:38.077Z,98781.13
2019-03-23T01:41:06.492Z,98780.78
2019-03-23T01:43:34.921Z,98774.30
2019-03-23T01:46:03.333Z,98779.98
2019-03-23T01:48:31.932Z,98744.92
2019-03-23T01:51:00.615Z,98776.97
2019-03-23T01:53:29.296Z,98781.80
2019-03-23T01:55:57.982Z,98776.62
2019-03-23T01:58:26.573Z,98777.50
2019-03-23T02:00:55.272Z,98780.61
2019-03-23T02:03:23.882Z,98780.25
2019-03-23T02:05:52.465Z,98780.25
2019-03-23T02:08:21.152Z,98778.89
2019-03-23T02:10:49.870Z,98777.20
2019-03-23T02:13:18.339Z,98772.83
2019-03-23T02:15:46.832Z,98767.25
2019-03-23T02:18:15.201Z,98772.95
2019-03-23T02:20:44.802Z,98769.09
2019-03-23T02:23:13.524Z,98768.73
2019-03-23T02:25:41.955Z,98772.65
2019-03-23T02:28:11.472Z,98770.04
2019-03-23T02:30:40.383Z,98775.27
2019-03-23T02:33:09.094Z,98774.34
2019-03-23T02:35:37.474Z,98781.33
2019-03-23T02:38:06.091Z,98774.33
2019-03-23T02:40:34.720Z,98772.67
2019-03-23T02:43:03.252Z,98768.81
2019-03-23T02:45:32.080Z,98766.27
2019-03-23T02:48:00.496Z,98766.34
2019-03-23T02:50:29.090Z,98764.17
2019-03-23T02:52:57.792Z,98762.01
2019-03-23T02:55:26.297Z,98756.34
2019-03-23T02:57:54.949Z,98762.86
2019-03-23T03:00:23.682Z,98761.57
2019-03-23T03:02:52.307Z,98760.76
2019-03-23T03:05:21.206Z,98763.44
2019-03-23T03:07:49.888Z,98764.75
2019-03-23T03:10:40.371Z,98760.41
2019-03-23T03:13:09.954Z,98759.16
2019-03-23T03:15:38.468Z,98759.19
2019-03-23T03:18:07.247Z,98763.53
2019-03-23T03:20:35.639Z,98756.98
2019-03-23T03:23:04.146Z,98762.66
2019-03-23T03:25:32.456Z,98752.20
2019-03-23T03:28:00.877Z,98754.44
2019-03-23T03:30:29.326Z,98758.37
2019-03-23T03:32:57.985Z,98732.81
2019-03-23T03:35:26.355Z,98750.59
2019-03-23T03:37:56.864Z,98748.91
2019-03-23T03:40:25.260Z,98747.98
2019-03-23T03:42:53.622Z,98742.30
2019-03-23T03:45:25.888Z,98744.50
2019-03-23T03:47:54.397Z,98744.06
2019-03-23T03:50:22.865Z,98744.98
2019-03-23T03:52:51.426Z,98746.25
2019-03-23T03:55:20.109Z,98745.38
2019-03-23T03:57:48.636Z,98744.44
2019-03-23T04:00:17.495Z,98745.78
2019-03-23T04:02:45.926Z,98751.89
2019-03-23T04:05:14.675Z,98743.24
2019-03-23T04:07:43.210Z,98738.95
2019-03-23T04:10:11.852Z,98731.99
2019-03-23T04:12:40.356Z,98726.77
2019-03-23T04:15:09.022Z,98726.41
2019-03-23T04:17:38.523Z,98725.63
2019-03-23T04:20:07.408Z,98727.81
2019-03-23T04:22:35.841Z,98722.17
2019-03-23T04:25:04.572Z,98726.56
2019-03-23T04:27:33.054Z,98723.08
2019-03-23T04:30:01.264Z,98716.12
2019-03-23T04:32:29.569Z,98717.86
2019-03-23T04:34:58.280Z,98713.08
2019-03-23T04:37:26.678Z,98711.27
2019-03-23T04:39:55.293Z,98714.76
2019-03-23T04:42:23.794Z,98723.09
2019-03-23T04:44:52.193Z,98712.26
2019-03-23T04:47:20.544Z,98720.52
2019-03-23T04:49:49.077Z,98688.92
2019-03-23T04:52:17.477Z,98729.28
2019-03-23T04:54:45.827Z,98724.88
2019-03-23T04:57:14.472Z,98731.36
2019-03-23T04:59:42.994Z,98727.94
2019-03-23T05:02:11.429Z,98725.80
2019-03-23T05:04:40.077Z,98730.16
2019-03-23T05:07:08.608Z,98730.11
2019-03-23T05:09:37.531Z,98729.67
2019-03-23T05:12:05.964Z,98731.50
2019-03-23T05:14:34.399Z,98735.81
2019-03-23T05:17:02.892Z,98731.02
2019-03-23T05:19:31.560Z,98723.62
2019-03-23T05:22:00.020Z,98727.97
2019-03-23T05:24:28.548Z,98725.74
2019-03-23T05:26:56.873Z,98718.73
2019-03-23T05:29:25.493Z,98728.27
2019-03-23T05:31:53.895Z,98728.69
2019-03-23T05:34:22.371Z,98729.06
2019-03-23T05:36:50.715Z,98734.66
2019-03-23T05:39:19.192Z,98728.12
2019-03-23T05:41:47.676Z,98740.20
2019-03-23T05:44:16.110Z,98728.30
2019-03-23T05:46:44.494Z,98749.87
2019-03-23T05:49:13.063Z,98747.12
2019-03-23T05:51:41.593Z,98756.54
2019-03-23T05:54:09.909Z,98753.33
2019-03-23T05:56:38.442Z,98760.38
2019-03-23T05:59:07.172Z,98752.22
2019-03-23T06:01:35.555Z,98759.22
2019-03-23T06:04:04.142Z,98760.19
2019-03-23T06:06:32.578Z,98757.29
2019-03-23T06:09:01.002Z,98763.92
2019-03-23T06:11:30.928Z,98764.51
2019-03-23T06:13:59.493Z,98766.30
2019-03-23T06:16:27.993Z,98763.75
2019-03-23T06:18:56.533Z,98761.12
2019-03-23T06:21:25.335Z,98765.77
2019-03-23T06:23:54.036Z,98769.88
2019-03-23T06:26:22.289Z,98768.63
2019-03-23T06:28:50.579Z,98766.13
2019-03-23T06:31:19.092Z,98762.68
2019-03-23T06:33:47.380Z,98764.61
2019-03-23T06:36:16.017Z,98768.25
2019-03-23T06:38:44.520Z,98765.79
2019-03-23T06:41:13.031Z,98766.63
2019-03-23T06:43:41.547Z,98760.60
2019-03-23T06:46:09.971Z,98778.25
2019-03-23T06:48:38.543Z,98774.23
2019-03-23T06:51:07.206Z,98776.59
2019-03-23T06:53:35.528Z,98778.69
2019-03-23T06:56:04.533Z,98771.98
2019-03-23T06:58:32.976Z,98768.30
2019-03-23T07:01:01.369Z,98773.03
2019-03-23T07:03:29.911Z,98773.28
2019-03-23T07:05:58.319Z,98771.31
2019-03-23T07:08:31.994Z,98770.88
2019-03-23T07:10:59.715Z,98770.00
2019-03-23T07:13:28.413Z,98761.80
2019-03-23T07:15:56.954Z,98745.19
2019-03-23T07:18:25.334Z,98747.41
2019-03-23T07:20:53.724Z,98757.56
2019-03-23T07:23:22.042Z,98756.47
2019-03-23T07:25:50.596Z,98747.20
2019-03-23T07:28:19.287Z,98749.02
2019-03-23T07:30:47.789Z,98746.08
2019-03-23T07:33:17.231Z,98742.27
2019-03-23T07:35:47.067Z,98746.66
2019-03-23T07:38:15.364Z,98749.14
2019-03-23T07:40:45.019Z,98751.95
2019-03-23T07:43:13.562Z,98751.14
2019-03-23T07:45:42.233Z,98740.47
2019-03-23T07:48:10.629Z,98733.23
2019-03-23T07:50:39.597Z,98731.23
2019-03-23T07:53:08.097Z,98720.82
2019-03-23T07:55:36.653Z,98730.69
2019-03-23T07:58:05.123Z,98728.55
2019-03-23T08:00:33.756Z,98728.34
2019-03-23T08:03:02.463Z,98736.45
2019-03-23T08:05:31.069Z,98730.56
2019-03-23T08:07:59.575Z,98734.04
2019-03-23T08:10:29.466Z,98716.06
2019-03-23T08:12:58.122Z,98735.75
2019-03-23T08:15:26.610Z,98732.19
2019-03-23T08:17:56.161Z,98734.48
2019-03-23T08:20:24.493Z,98719.44
2019-03-23T08:22:53.127Z,98726.84
2019-03-23T08:25:21.899Z,98730.92
2019-03-23T08:27:50.512Z,98727.08
2019-03-23T08:30:19.150Z,98727.00
2019-03-23T08:32:48.802Z,98726.78
2019-03-23T08:35:18.604Z,98723.83
2019-03-23T08:37:47.203Z,98701.17
2019-03-23T08:40:15.992Z,98721.00
2019-03-23T08:42:45.621Z,98722.86
2019-03-23T08:45:14.337Z,98719.35
2019-03-23T08:47:42.777Z,98717.97
2019-03-23T08:50:11.578Z,98718.69
2019-03-23T08:52:40.164Z,98709.66
2019-03-23T08:55:08.712Z,98706.81
2019-03-23T08:57:37.346Z,98704.16
2019-03-23T09:00:06.248Z,98703.42
2019-03-23T09:02:36.366Z,98704.94
2019-03-23T09:05:05.225Z,98697.92
2019-03-23T09:07:33.892Z,98698.92
2019-03-23T09:10:02.374Z,98696.03
2019-03-23T09:12:30.983Z,98689.08
2019-03-23T09:14:59.763Z,98696.05
2019-03-23T09:17:28.355Z,98692.41
2019-03-23T09:19:57.028Z,98695.52
2019-03-23T09:22:25.651Z,98685.81
2019-03-23T09:24:56.985Z,98689.59
2019-03-23T09:27:25.053Z,98680.34
2019-03-23T09:29:53.583Z,98679.94
2019-03-23T09:32:21.959Z,98675.63
2019-03-23T09:34:50.883Z,98676.20
2019-03-23T09:37:19.432Z,98670.00
2019-03-23T09:39:47.796Z,98662.27
2019-03-23T09:42:16.398Z,98667.18
2019-03-23T09:44:45.060Z,98664.81
2019-03-23T09:47:13.805Z,98656.62
2019-03-23T09:49:42.409Z,98654.44
2019-03-23T09:52:11.026Z,98650.70
2019-03-23T09:54:39.649Z,98652.98
2019-03-23T09:57:08.124Z,98650.11
2019-03-23T09:59:36.624Z,98650.64
2019-03-23T10:02:05.100Z,98644.56
2019-03-23T10:04:33.666Z,98645.48
2019-03-23T10:07:01.966Z,98636.95
2019-03-23T10:09:30.517Z,98640.64
2019-03-23T10:11:59.617Z,98636.11
2019-03-23T10:14:28.194Z,98633.52
2019-03-23T10:16:56.503Z,98632.64
2019-03-23T10:19:24.943Z,98628.48
2019-03-23T10:21:53.439Z,98635.45
2019-03-23T10:24:24.805Z,98631.29
2019-03-23T10:26:53.165Z,98629.11
2019-03-23T10:29:22.568Z,98625.66
2019-03-23T10:31:51.181Z,98625.36
2019-03-23T10:34:19.724Z,98630.89
2019-03-23T10:36:48.026Z,98632.88
2019-03-23T10:39:17.345Z,98628.84
2019-03-23T10:41:45.767Z,98629.73
2019-03-23T10:44:14.400Z,98622.85
2019-03-23T10:46:43.038Z,98620.22
2019-03-23T10:49:11.403Z,98617.65
2019-03-23T10:51:39.773Z,98613.36
2019-03-23T10:54:08.385Z,98607.98
2019-03-23T10:56:36.814Z,98615.09
2019-03-23T10:59:05.389Z,98612.53
2019-03-23T11:01:34.783Z,98588.63
2019-03-23T11:04:03.323Z,98598.77
2019-03-23T11:06:31.936Z,98595.33
2019-03-23T11:09:00.387Z,98589.15
2019-03-23T11:11:28.715Z,98594.25
2019-03-23T11:13:57.078Z,98593.38
2019-03-23T11:16:25.359Z,98586.45
2019-03-23T11:18:53.981Z,98583.20
2019-03-23T11:21:22.250Z,98581.02
2019-03-23T11:23:50.719Z,98575.30
2019-03-23T11:26:19.387Z,98570.03
2019-03-23T11:28:47.922Z,98562.94
2019-03-23T11:31:16.695Z,98558.28
2019-03-23T11:33:46.099Z,98559.23
2019-03-23T11:36:14.438Z,98548.15
2019-03-23T11:38:42.974Z,98559.61
2019-03-23T11:41:11.346Z,98556.02
2019-03-23T11:43:39.852Z,98544.20
2019-03-23T11:46:08.412Z,98550.56
2019-03-23T11:48:36.874Z,98544.82
2019-03-23T11:51:06.274Z,98532.77
2019-03-23T11:53:34.779Z,98526.73
2019-03-23T11:56:03.209Z,98530.32
2019-03-23T11:58:33.691Z,98518.78
2019-03-23T12:01:02.164Z,98527.31
2019-03-23T12:03:30.607Z,98501.06
2019-03-23T12:05:59.180Z,98516.89
2019-03-23T12:08:27.781Z,98510.39
2019-03-23T12:11:02.946Z,98505.10
2019-03-23T12:13:26.944Z,98507.45
2019-03-23T12:15:55.504Z,98507.56
2019-03-23T12:18:24.120Z,98502.45
2019-03-23T12:20:52.609Z,98505.25
2019-03-23T12:23:21.188Z,98496.75
2019-03-23T12:25:49.710Z,98499.59
2019-03-23T12:28:18.228Z,98494.09
2019-03-23T12:30:46.786Z,98491.20
2019-03-23T12:33:15.329Z,98481.17
2019-03-23T12:35:43.749Z,98485.50
2019-03-23T12:38:12.052Z,98483.41
2019-03-23T12:40:40.412Z,98471.52
2019-03-23T12:43:08.946Z,98463.20
2019-03-23T12:45:38.899Z,98454.56
2019-03-23T12:48:07.701Z,98459.27
2019-03-23T12:50:36.019Z,98456.94
2019-03-23T12:53:04.675Z,98451.89
2019-03-23T12:55:33.385Z,98448.20
2019-03-23T12:58:03.560Z,98433.85
2019-03-23T13:00:32.224Z,98437.93
2019-03-23T13:03:00.823Z,98437.29
2019-03-23T13:05:29.259Z,98436.66
2019-03-23T13:07:59.855Z,98437.72
2019-03-23T13:10:28.648Z,98437.45
2019-03-23T13:12:58.455Z,98418.48
2019-03-23T13:15:27.401Z,98422.41
2019-03-23T13:17:56.064Z,98414.88
2019-03-23T13:20:24.596Z,98424.73
2019-03-23T13:22:53.203Z,98418.80
2019-03-23T13:25:21.708Z,98408.74
2019-03-23T13:27:51.667Z,98413.02
2019-03-23T13:30:20.441Z,98400.70
2019-03-23T13:32:49.044Z,98403.90
2019-03-23T13:35:17.884Z,98391.03
2019-03-23T13:37:46.333Z,98399.38
2019-03-23T13:40:16.431Z,98399.55
2019-03-23T13:42:45.013Z,98386.68
2019-03-23T13:45:15.351Z,98389.77
2019-03-23T13:47:43.851Z,98390.16
2019-03-23T13:50:16.244Z,98387.28
2019-03-23T13:52:44.813Z,98387.45
2019-03-23T13:55:24.409Z,98379.75
2019-03-23T13:57:54.057Z,98372.11
2019-03-23T14:00:23.549Z,98372.48
2019-03-23T14:02:52.015Z,98365.03
2019-03-23T14:05:20.420Z,98354.94
2019-03-23T14:07:52.589Z,98364.94
2019-03-23T14:10:20.968Z,98363.55
2019-03-23T14:12:49.602Z,98357.91
2019-03-23T14:15:18.062Z,98355.83
2019-03-23T14:17:46.732Z,98353.22
2019-03-23T14:20:15.015Z,98346.78
2019-03-23T14:22:43.396Z,98341.98
2019-03-23T14:25:20.023Z,98342.09
2019-03-23T14:27:48.600Z,98340.84
2019-03-23T14:30:18.037Z,98338.06
2019-03-23T14:32:46.644Z,98335.03
2019-03-23T14:35:14.869Z,98335.89
2019-03-23T14:37:43.476Z,98337.00
2019-03-23T14:40:11.764Z,98328.00
2019-03-23T14:42:40.338Z,98329.03
2019-03-23T14:45:08.721Z,98334.48
2019-03-23T14:47:37.505Z,98332.08
2019-03-23T14:50:06.160Z,98336.28
2019-03-23T14:52:35.013Z,98326.64
2019-03-23T14:55:03.383Z,98326.43
2019-03-23T14:57:35.524Z,98324.41
2019-03-23T15:00:05.228Z,98328.70
2019-03-23T15:02:34.882Z,98322.52
2019-03-23T15:05:06.824Z,98319.72
2019-03-23T15:07:35.474Z,98324.13
2019-03-23T15:10:05.202Z,98323.56
2019-03-23T15:12:34.002Z,98313.06
2019-03-23T15:15:02.451Z,98317.14
2019-03-23T15:17:30.922Z,98313.91
2019-03-23T15:20:00.972Z,98315.02
2019-03-23T15:22:29.459Z,98323.45
2019-03-23T15:24:58.033Z,98321.04
2019-03-23T15:27:26.434Z,98321.11
2019-03-23T15:29:55.201Z,98320.26
2019-03-23T15:32:23.586Z,98321.61
2019-03-23T15:34:52.082Z,98326.55
2019-03-23T15:37:20.572Z,98325.93
2019-03-23T15:39:49.155Z,98326.14
2019-03-23T15:42:24.712Z,98320.49
2019-03-23T15:44:47.986Z,98320.23
2019-03-23T15:47:16.402Z,98327.95
2019-03-23T15:49:44.736Z,98328.62
2019-03-23T15:52:13.089Z,98325.40
2019-03-23T15:54:41.438Z,98337.40
2019-03-23T15:57:09.773Z,98328.31
2019-03-23T15:59:38.251Z,98321.83
2019-03-23T16:02:07.346Z,98322.11
2019-03-23T16:04:36.976Z,98326.38
2019-03-23T16:07:05.632Z,98326.57
2019-03-23T16:09:34.630Z,98323.19
2019-03-23T16:12:03.247Z,98305.24
2019-03-23T16:14:33.449Z,98328.45
2019-03-23T16:17:02.111Z,98330.16
2019-03-23T16:19:30.685Z,98332.20
2019-03-23T16:22:00.184Z,98334.10
2019-03-23T16:24:28.762Z,98333.13
2019-03-23T16:26:57.593Z,98341.79
2019-03-23T16:29:25.996Z,98338.31
2019-03-23T16:31:54.591Z,98337.73
2019-03-23T16:34:24.245Z,98332.20
2019-03-23T16:36:52.940Z,98327.76
2019-03-23T16:39:21.264Z,98332.44
2019-03-23T16:41:49.658Z,98330.77
2019-03-23T16:44:17.970Z,98335.03
2019-03-23T16:46:46.690Z,98329.69
2019-03-23T16:49:15.246Z,98329.60
2019-03-23T16:51:43.495Z,98332.55
2019-03-23T16:54:12.607Z,98336.27
2019-03-23T16:56:41.190Z,98332.85
2019-03-23T16:59:09.575Z,98333.63
2019-03-23T17:01:38.033Z,98335.21
2019-03-23T17:04:06.633Z,98340.96
2019-03-23T17:06:45.847Z,98343.76
2019-03-23T17:09:05.714Z,98336.81
2019-03-23T17:11:34.242Z,98337.42
2019-03-23T17:14:02.912Z,98342.80
2019-03-23T17:16:31.259Z,98339.98
2019-03-23T17:18:59.672Z,98341.81
2019-03-23T17:21:28.113Z,98345.02
2019-03-23T17:23:56.574Z,98340.47
2019-03-23T17:26:25.720Z,98337.39
2019-03-23T17:28:54.178Z,98336.37
2019-03-23T17:31:22.724Z,98336.95
2019-03-23T17:33:51.387Z,98336.05
2019-03-23T17:36:19.711Z,98338.51
2019-03-23T17:38:48.333Z,98345.88
2019-03-23T17:41:16.822Z,98347.48
2019-03-23T17:43:45.345Z,98353.12
2019-03-23T17:46:13.749Z,98352.11
2019-03-23T17:48:42.155Z,98346.20
2019-03-23T17:51:10.466Z,98332.64
2019-03-23T17:53:38.991Z,98356.32
2019-03-23T17:56:07.538Z,98359.46
2019-03-23T17:58:36.159Z,98359.92
2019-03-23T18:01:05.537Z,98359.09
2019-03-23T18:03:34.108Z,98361.96
2019-03-23T18:06:02.769Z,98342.88
2019-03-23T18:08:31.076Z,98367.61
2019-03-23T18:10:59.645Z,98367.78
2019-03-23T18:13:28.140Z,98374.61
2019-03-23T18:15:57.207Z,98376.61
2019-03-23T18:18:25.668Z,98379.52
2019-03-23T18:20:54.393Z,98364.80
2019-03-23T18:23:22.756Z,98372.76
2019-03-23T18:25:51.418Z,98375.38
2019-03-23T18:28:20.006Z,98379.72
2019-03-23T18:30:48.610Z,98385.25
2019-03-23T18:33:17.044Z,98387.60
2019-03-23T18:35:48.393Z,98392.22
2019-03-23T18:38:16.957Z,98391.52
2019-03-23T18:40:45.710Z,98392.41
2019-03-23T18:43:14.153Z,98404.56
2019-03-23T18:45:42.618Z,98401.86
2019-03-23T18:48:10.988Z,98406.84
2019-03-23T18:50:39.358Z,98420.02
2019-03-23T18:53:08.317Z,98407.22
2019-03-23T18:55:36.832Z,98416.34
2019-03-23T18:58:05.415Z,98415.97
2019-03-23T19:00:36.015Z,98422.00
2019-03-23T19:03:04.733Z,98421.90
2019-03-23T19:05:33.248Z,98428.39
2019-03-23T19:08:01.811Z,98403.69
2019-03-23T19:10:30.162Z,98429.58
2019-03-23T19:12:58.659Z,98426.84
2019-03-23T19:15:27.428Z,98431.13
2019-03-23T19:17:55.778Z,98435.43
2019-03-23T19:20:24.150Z,98411.36
2019-03-23T19:22:52.508Z,98442.56
2019-03-23T19:25:20.862Z,98438.49
2019-03-23T19:27:49.481Z,98452.05
2019-03-23T19:30:18.310Z,98449.84
2019-03-23T19:32:46.723Z,98451.47
2019-03-23T19:35:15.008Z,98456.27
2019-03-23T19:37:43.499Z,98458.55
2019-03-23T19:40:11.824Z,98463.05
2019-03-23T19:42:41.280Z,98430.42
2019-03-23T19:45:10.390Z,98461.81
2019-03-23T19:47:38.980Z,98463.97
2019-03-23T19:50:07.741Z,98469.22
2019-03-23T19:52:36.198Z,98467.52
2019-03-23T19:55:04.455Z,98479.03
2019-03-23T19:57:32.685Z,98473.44
2019-03-23T20:00:00.823Z,98470.61
2019-03-23T20:02:29.043Z,98477.02
2019-03-23T20:04:58.228Z,98479.81
2019-03-23T20:07:33.017Z,98464.21
2019-03-23T20:09:56.515Z,98486.03
2019-03-23T20:12:24.803Z,98490.09
2019-03-23T20:14:53.821Z,98479.56
2019-03-23T20:17:22.073Z,98481.36
2019-03-23T20:19:50.217Z,98475.59
2019-03-23T20:22:18.661Z,98474.84
2019-03-23T20:24:46.704Z,98477.62
2019-03-23T20:27:15.009Z,98470.34
2019-03-23T20:29:43.149Z,98477.48
2019-03-23T20:32:11.444Z,98472.34
2019-03-23T20:34:39.616Z,98479.72
2019-03-23T20:37:08.510Z,98474.48
2019-03-23T20:39:36.829Z,98465.20
2019-03-23T20:42:05.110Z,98475.72
2019-03-23T20:44:33.204Z,98481.98
2019-03-23T20:47:01.515Z,98479.13
2019-03-23T20:49:30.364Z,98474.31
2019-03-23T20:51:58.634Z,98477.77
2019-03-23T20:54:27.464Z,98485.95
2019-03-23T20:56:55.734Z,98487.41
2019-03-23T20:59:25.295Z,98486.80
2019-03-23T21:01:53.553Z,98468.55
2019-03-23T21:04:21.955Z,98490.65
2019-03-23T21:06:51.912Z,98489.12
2019-03-23T21:09:20.228Z,98491.97
2019-03-23T21:11:48.374Z,98491.51
2019-03-23T21:14:20.469Z,98487.56
2019-03-23T21:16:46.710Z,98482.06
2019-03-23T21:19:14.963Z,98485.76
2019-03-23T21:21:43.182Z,98485.34
2019-03-23T21:24:11.440Z,98485.63
2019-03-23T21:26:39.575Z,98456.43
2019-03-23T21:29:07.728Z,98486.16
2019-03-23T21:31:35.884Z,98484.08
2019-03-23T21:34:04.172Z,98489.95
2019-03-23T21:36:32.313Z,98492.18
2019-03-23T21:39:00.595Z,98490.23
2019-03-23T21:41:28.691Z,98486.77
2019-03-23T21:43:56.859Z,98492.13
2019-03-23T21:46:25.015Z,98490.83
2019-03-23T21:48:53.364Z,98487.96
2019-03-23T21:51:21.530Z,98483.68
2019-03-23T21:53:50.009Z,98490.02
2019-03-23T21:56:18.289Z,98487.50
2019-03-23T21:58:46.512Z,98484.55
2019-03-23T22:01:14.972Z,98486.91
2019-03-23T22:03:43.271Z,98485.23
2019-03-23T22:06:11.523Z,98488.95
2019-03-23T22:08:39.745Z,98496.55
2019-03-23T22:11:08.074Z,98494.99
2019-03-23T22:13:36.393Z,98472.61
2019-03-23T22:16:05.390Z,98490.13
2019-03-23T22:18:33.960Z,98484.63
2019-03-23T22:21:02.223Z,98490.44
2019-03-23T22:23:30.358Z,98487.34
2019-03-23T22:25:58.646Z,98491.97
2019-03-23T22:28:26.814Z,98487.82
2019-03-23T22:30:56.083Z,98482.36
2019-03-23T22:33:24.207Z,98490.30
2019-03-23T22:35:52.496Z,98483.30
2019-03-23T22:38:20.641Z,98480.47
2019-03-23T22:40:48.903Z,98483.89
2019-03-23T22:43:16.980Z,98482.62
2019-03-23T22:45:46.555Z,98489.78
2019-03-23T22:48:14.695Z,98480.19
2019-03-23T22:50:42.968Z,98478.09
2019-03-23T22:53:11.059Z,98484.84
2019-03-23T22:55:39.263Z,98489.48
2019-03-23T22:58:07.392Z,98480.27
2019-03-23T23:00:43.092Z,98480.27
2019-03-23T23:03:12.180Z,98473.06
2019-03-23T23:05:40.423Z,98479.73
2019-03-23T23:08:08.528Z,98481.16
2019-03-23T23:10:36.841Z,98473.47
2019-03-23T23:13:04.982Z,98471.83
2019-03-23T23:15:33.459Z,98468.98
2019-03-23T23:18:02.803Z,98466.75
2019-03-23T23:20:31.129Z,98461.23
2019-03-23T23:22:59.309Z,98464.84
2019-03-23T23:25:27.530Z,98465.33
2019-03-23T23:27:55.744Z,98465.00
2019-03-23T23:30:23.927Z,98466.80
2019-03-23T23:32:52.053Z,98465.97
2019-03-23T23:35:20.331Z,98466.05
2019-03-23T23:37:49.459Z,98464.09
2019-03-23T23:40:17.619Z,98460.38
2019-03-23T23:42:45.730Z,98460.56
2019-03-23T23:45:15.715Z,98456.73
2019-03-23T23:47:43.987Z,98455.53
2019-03-23T23:50:12.330Z,98450.34
2019-03-23T23:52:40.495Z,98445.58
2019-03-23T23:55:11.921Z,98447.34
2019-03-23T23:57:40.184Z,98443.62
